createdAt,value
2019-01-29T00:00:25.893Z,7.33
2019-01-29T00:02:54.369Z,9.13
2019-01-29T00:05:22.788Z,4.70
2019-01-29T00:07:51.217Z,4.90
2019-01-29T00:10:19.661Z,6.87
2019-01-29T00:12:48.061Z,4.03
2019-01-29T00:15:16.633Z,4.33
2019-01-29T00:17:45.070Z,4.43
2019-01-29T00:20:13.639Z,3.93
2019-01-29T00:22:42.053Z,4.50
2019-01-29T00:25:10.932Z,4.60
2019-01-29T00:27:39.369Z,3.40
2019-01-29T00:30:10.877Z,3.97
2019-01-29T00:32:39.294Z,4.83
2019-01-29T00:35:07.969Z,4.93
2019-01-29T00:37:36.449Z,5.00
2019-01-29T00:40:12.399Z,5.60
2019-01-29T00:42:40.826Z,3.90
2019-01-29T00:45:12.048Z,4.27
2019-01-29T00:47:40.579Z,4.40
2019-01-29T00:50:11.306Z,4.30
2019-01-29T00:52:42.048Z,6.60
2019-01-29T00:55:12.487Z,3.90
2019-01-29T00:57:40.966Z,3.67
2019-01-29T01:00:17.595Z,4.00
2019-01-29T01:02:46.201Z,4.60
2019-01-29T01:05:15.467Z,3.60
2019-01-29T01:07:44.004Z,5.10
2019-01-29T01:10:15.357Z,5.70
2019-01-29T01:12:43.784Z,6.83
2019-01-29T01:15:13.060Z,8.17
2019-01-29T01:17:41.488Z,3.93
2019-01-29T01:20:12.933Z,4.33
2019-01-29T01:22:50.396Z,4.90
2019-01-29T01:25:13.493Z,5.17
2019-01-29T01:27:42.007Z,5.70
2019-01-29T01:30:13.391Z,5.30
2019-01-29T01:32:41.851Z,3.23
2019-01-29T01:35:10.500Z,3.40
2019-01-29T01:37:39.014Z,4.43
2019-01-29T01:40:10.520Z,4.13
2019-01-29T01:42:38.948Z,6.53
2019-01-29T01:45:10.225Z,5.30
2019-01-29T01:47:38.689Z,5.90
2019-01-29T01:50:09.572Z,7.53
2019-01-29T01:52:38.012Z,3.90
2019-01-29T01:55:09.260Z,3.67
2019-01-29T01:57:37.703Z,4.83
2019-01-29T02:00:14.476Z,8.30
2019-01-29T02:02:42.976Z,13.80
2019-01-29T02:05:11.535Z,27.73
2019-01-29T02:07:40.042Z,20.87
2019-01-29T02:10:17.245Z,11.03
2019-01-29T02:12:45.673Z,5.00
2019-01-29T02:15:14.324Z,7.77
2019-01-29T02:17:42.828Z,11.70
2019-01-29T02:20:13.791Z,5.80
2019-01-29T02:22:42.244Z,4.80
2019-01-29T02:25:10.893Z,4.83
2019-01-29T02:27:39.318Z,5.10
2019-01-29T02:30:17.074Z,4.40
2019-01-29T02:32:45.777Z,3.47
2019-01-29T02:35:14.290Z,4.03
2019-01-29T02:37:42.729Z,2.40
2019-01-29T02:40:16.707Z,3.20
2019-01-29T02:42:45.997Z,2.90
2019-01-29T02:45:15.772Z,3.30
2019-01-29T02:47:44.190Z,3.70
2019-01-29T02:50:14.867Z,4.03
2019-01-29T02:52:43.482Z,3.30
2019-01-29T02:55:13.672Z,3.57
2019-01-29T02:57:42.146Z,3.30
2019-01-29T03:00:16.027Z,4.37
2019-01-29T03:02:44.523Z,3.53
2019-01-29T03:05:14.905Z,4.67
2019-01-29T03:07:43.451Z,5.57
2019-01-29T03:10:14.765Z,4.40
2019-01-29T03:12:43.190Z,3.77
2019-01-29T03:15:14.912Z,3.20
2019-01-29T03:17:43.520Z,7.40
2019-01-29T03:20:13.954Z,4.90
2019-01-29T03:22:42.433Z,4.00
2019-01-29T03:25:12.023Z,5.07
2019-01-29T03:27:40.504Z,2.70
2019-01-29T03:30:14.744Z,2.93
2019-01-29T03:32:43.171Z,3.90
2019-01-29T03:35:12.318Z,4.50
2019-01-29T03:37:40.833Z,3.40
2019-01-29T03:40:12.250Z,3.63
2019-01-29T03:42:41.060Z,3.57
2019-01-29T03:45:12.454Z,4.30
2019-01-29T03:47:40.890Z,4.87
2019-01-29T03:50:12.312Z,3.67
2019-01-29T03:52:40.798Z,4.40
2019-01-29T03:55:10.480Z,4.00
2019-01-29T03:57:39.037Z,3.83
2019-01-29T04:00:13.992Z,4.93
2019-01-29T04:02:42.472Z,4.00
2019-01-29T04:05:11.044Z,5.77
2019-01-29T04:07:39.478Z,3.40
2019-01-29T04:10:11.037Z,5.20
2019-01-29T04:12:39.447Z,4.40
2019-01-29T04:15:11.217Z,5.73
2019-01-29T04:17:39.638Z,4.53
2019-01-29T04:20:11.184Z,5.13
2019-01-29T04:22:39.616Z,7.60
2019-01-29T04:25:08.812Z,4.93
2019-01-29T04:27:37.274Z,4.27
2019-01-29T04:30:08.795Z,4.03
2019-01-29T04:32:37.274Z,4.20
2019-01-29T04:35:06.252Z,6.20
2019-01-29T04:37:34.649Z,5.77
2019-01-29T04:40:03.544Z,5.73
2019-01-29T04:42:31.978Z,6.53
2019-01-29T04:45:00.396Z,5.20
2019-01-29T04:47:28.828Z,5.70
2019-01-29T04:49:57.244Z,3.90
2019-01-29T04:52:25.679Z,4.40
2019-01-29T04:54:54.100Z,4.73
2019-01-29T04:57:22.612Z,5.40
2019-01-29T04:59:51.037Z,4.60
2019-01-29T05:02:19.840Z,4.20
2019-01-29T05:04:48.272Z,4.30
2019-01-29T05:07:16.692Z,5.10
2019-01-29T05:09:45.106Z,5.77
2019-01-29T05:12:13.537Z,4.53
2019-01-29T05:14:41.973Z,6.63
2019-01-29T05:17:10.418Z,4.70
2019-01-29T05:19:38.885Z,5.10
2019-01-29T05:22:07.309Z,3.63
2019-01-29T05:24:35.745Z,4.43
2019-01-29T05:27:04.191Z,6.03
2019-01-29T05:29:32.643Z,6.07
2019-01-29T05:32:01.133Z,4.20
2019-01-29T05:34:29.626Z,4.60
2019-01-29T05:36:58.102Z,7.83
2019-01-29T05:39:26.600Z,5.20
2019-01-29T05:41:55.020Z,6.23
2019-01-29T05:44:23.548Z,4.60
2019-01-29T05:46:51.966Z,7.10
2019-01-29T05:49:20.416Z,5.50
2019-01-29T05:51:48.816Z,5.90
2019-01-29T05:54:17.301Z,5.73
2019-01-29T05:56:47.406Z,5.47
2019-01-29T05:59:16.066Z,5.33
2019-01-29T06:01:44.520Z,5.13
2019-01-29T06:04:12.973Z,6.50
2019-01-29T06:06:41.401Z,5.00
2019-01-29T06:09:09.840Z,6.27
2019-01-29T06:11:38.329Z,7.93
2019-01-29T06:14:06.796Z,8.57
2019-01-29T06:16:35.235Z,6.10
2019-01-29T06:19:03.784Z,4.50
2019-01-29T06:21:32.220Z,5.70
2019-01-29T06:24:00.625Z,4.77
2019-01-29T06:26:29.135Z,11.33
2019-01-29T06:28:57.612Z,7.23
2019-01-29T06:31:26.037Z,6.33
2019-01-29T06:33:54.460Z,5.30
2019-01-29T06:36:22.906Z,5.53
2019-01-29T06:38:51.324Z,6.80
2019-01-29T06:41:19.836Z,7.00
2019-01-29T06:43:48.254Z,5.93
2019-01-29T06:46:16.668Z,6.17
2019-01-29T06:48:45.085Z,5.67
2019-01-29T06:51:13.526Z,5.17
2019-01-29T06:53:41.954Z,4.67
2019-01-29T06:56:10.387Z,6.10
2019-01-29T06:58:38.814Z,5.00
2019-01-29T07:01:07.250Z,5.80
2019-01-29T07:03:35.729Z,5.17
2019-01-29T07:06:04.176Z,4.70
2019-01-29T07:08:32.703Z,5.43
2019-01-29T07:11:01.209Z,6.37
2019-01-29T07:13:29.704Z,6.33
2019-01-29T07:16:05.825Z,6.80
2019-01-29T07:18:38.614Z,5.17
2019-01-29T07:21:09.130Z,4.70
2019-01-29T07:23:37.740Z,6.57
2019-01-29T07:26:06.284Z,8.67
2019-01-29T07:28:34.948Z,9.53
2019-01-29T07:31:03.783Z,6.57
2019-01-29T07:33:32.231Z,5.47
2019-01-29T07:36:00.642Z,5.33
2019-01-29T07:38:29.089Z,5.83
2019-01-29T07:40:57.488Z,5.20
2019-01-29T07:43:25.923Z,6.40
2019-01-29T07:45:54.409Z,5.30
2019-01-29T07:48:22.855Z,5.27
2019-01-29T07:50:51.362Z,6.63
2019-01-29T07:53:19.868Z,5.63
2019-01-29T07:55:48.362Z,4.33
2019-01-29T07:58:16.813Z,4.13
2019-01-29T08:00:45.204Z,5.57
2019-01-29T08:03:13.708Z,5.73
2019-01-29T08:05:42.153Z,4.70
2019-01-29T08:08:10.700Z,6.03
2019-01-29T08:10:39.189Z,6.00
2019-01-29T08:13:07.789Z,6.27
2019-01-29T08:15:36.218Z,6.87
2019-01-29T08:18:05.478Z,6.40
2019-01-29T08:20:33.909Z,6.20
2019-01-29T08:23:02.381Z,5.57
2019-01-29T08:25:30.825Z,4.63
2019-01-29T08:27:59.232Z,7.07
2019-01-29T08:30:27.670Z,5.70
2019-01-29T08:32:56.096Z,6.97
2019-01-29T08:35:24.609Z,9.10
2019-01-29T08:37:53.030Z,9.67
2019-01-29T08:40:21.536Z,8.40
2019-01-29T08:42:49.968Z,7.23
2019-01-29T08:45:19.741Z,10.87
2019-01-29T08:47:48.300Z,6.40
2019-01-29T08:50:24.881Z,8.47
2019-01-29T08:52:53.292Z,6.63
2019-01-29T08:55:22.096Z,9.13
2019-01-29T08:57:50.588Z,9.63
2019-01-29T09:00:21.128Z,6.47
2019-01-29T09:02:49.534Z,7.03
2019-01-29T09:05:18.020Z,7.87
2019-01-29T09:07:46.608Z,5.77
2019-01-29T09:10:17.258Z,6.30
2019-01-29T09:12:45.821Z,8.43
2019-01-29T09:15:21.205Z,10.57
2019-01-29T09:17:50.078Z,6.90
2019-01-29T09:20:22.576Z,9.30
2019-01-29T09:22:51.179Z,6.23
2019-01-29T09:25:22.538Z,7.77
2019-01-29T09:27:49.894Z,5.87
2019-01-29T09:30:21.808Z,6.30
2019-01-29T09:32:50.592Z,5.20
2019-01-29T09:35:19.138Z,5.90
2019-01-29T09:37:47.576Z,6.70
2019-01-29T09:40:18.710Z,6.13
2019-01-29T09:42:47.472Z,5.20
2019-01-29T09:45:17.609Z,5.63
2019-01-29T09:47:46.364Z,8.30
2019-01-29T09:50:17.616Z,6.23
2019-01-29T09:52:46.274Z,6.53
2019-01-29T09:55:16.974Z,5.33
2019-01-29T09:57:45.538Z,9.13
2019-01-29T10:00:28.632Z,5.43
2019-01-29T10:02:57.202Z,6.83
2019-01-29T10:05:26.193Z,5.83
2019-01-29T10:07:56.161Z,5.57
2019-01-29T10:10:24.685Z,5.17
2019-01-29T10:12:53.261Z,7.67
2019-01-29T10:15:35.762Z,4.73
2019-01-29T10:18:04.710Z,5.37
2019-01-29T10:20:33.577Z,5.63
2019-01-29T10:23:01.992Z,6.37
2019-01-29T10:25:37.307Z,7.07
2019-01-29T10:28:00.650Z,5.40
2019-01-29T10:30:29.233Z,6.23
2019-01-29T10:32:57.714Z,5.60
2019-01-29T10:35:28.587Z,7.07
2019-01-29T10:37:57.096Z,9.33
2019-01-29T10:40:28.541Z,4.80
2019-01-29T10:42:57.898Z,5.30
2019-01-29T10:45:28.777Z,6.80
2019-01-29T10:47:57.258Z,7.27
2019-01-29T10:50:27.937Z,5.97
2019-01-29T10:52:56.497Z,6.00
2019-01-29T10:55:25.091Z,5.87
2019-01-29T10:57:53.647Z,5.90
2019-01-29T11:00:25.074Z,9.00
2019-01-29T11:02:54.210Z,8.53
2019-01-29T11:05:22.882Z,6.67
2019-01-29T11:07:51.391Z,6.93
2019-01-29T11:10:20.554Z,8.70
2019-01-29T11:12:49.136Z,6.07
2019-01-29T11:15:28.463Z,9.53
2019-01-29T11:17:57.257Z,7.50
2019-01-29T11:20:25.809Z,8.27
2019-01-29T11:22:54.337Z,6.90
2019-01-29T11:25:25.209Z,6.00
2019-01-29T11:27:53.759Z,6.40
2019-01-29T11:30:27.069Z,6.53
2019-01-29T11:32:55.827Z,6.60
2019-01-29T11:35:24.512Z,7.70
2019-01-29T11:37:53.169Z,8.60
2019-01-29T11:40:23.950Z,6.10
2019-01-29T11:42:52.442Z,5.13
2019-01-29T11:45:24.167Z,5.13
2019-01-29T11:47:52.635Z,10.00
2019-01-29T11:50:21.067Z,8.03
2019-01-29T11:52:49.512Z,6.13
2019-01-29T11:55:18.072Z,9.10
2019-01-29T11:57:46.904Z,13.70
2019-01-29T12:00:23.049Z,6.73
2019-01-29T12:02:51.535Z,6.73
2019-01-29T12:05:19.965Z,4.23
2019-01-29T12:07:48.461Z,6.37
2019-01-29T12:10:17.038Z,7.40
2019-01-29T12:12:45.537Z,14.03
2019-01-29T12:15:17.201Z,7.40
2019-01-29T12:17:45.719Z,5.50
2019-01-29T12:20:16.476Z,3.50
2019-01-29T12:22:45.236Z,3.30
2019-01-29T12:25:13.917Z,4.73
2019-01-29T12:27:42.425Z,3.50
2019-01-29T12:30:19.724Z,4.17
2019-01-29T12:32:49.335Z,5.00
2019-01-29T12:35:17.906Z,5.40
2019-01-29T12:37:46.409Z,5.93
2019-01-29T12:40:15.457Z,6.03
2019-01-29T12:42:44.041Z,4.17
2019-01-29T12:45:17.625Z,6.90
2019-01-29T12:47:46.272Z,4.93
2019-01-29T12:50:23.536Z,4.00
2019-01-29T12:52:53.735Z,4.93
2019-01-29T12:55:22.294Z,4.67
2019-01-29T12:57:50.728Z,4.20
2019-01-29T13:00:20.648Z,4.87
2019-01-29T13:02:49.099Z,3.60
2019-01-29T13:05:17.658Z,5.60
2019-01-29T13:07:46.178Z,4.73
2019-01-29T13:10:22.828Z,4.20
2019-01-29T13:12:51.278Z,3.40
2019-01-29T13:15:25.666Z,3.93
2019-01-29T13:17:54.194Z,4.63
2019-01-29T13:20:22.752Z,6.03
2019-01-29T13:22:51.234Z,5.30
2019-01-29T13:25:19.867Z,4.30
2019-01-29T13:27:48.373Z,5.33
2019-01-29T13:30:28.249Z,6.10
2019-01-29T13:32:56.768Z,4.43
2019-01-29T13:35:28.072Z,3.97
2019-01-29T13:37:56.524Z,5.43
2019-01-29T13:40:25.248Z,4.00
2019-01-29T13:42:55.297Z,6.10
2019-01-29T13:45:23.884Z,4.60
2019-01-29T13:47:52.460Z,4.23
2019-01-29T13:50:26.769Z,4.13
2019-01-29T13:52:55.286Z,3.60
2019-01-29T13:55:23.727Z,4.67
2019-01-29T13:57:52.229Z,3.20
2019-01-29T14:00:23.565Z,3.87
2019-01-29T14:02:52.069Z,3.53
2019-01-29T14:05:20.644Z,2.67
2019-01-29T14:07:49.126Z,2.60
2019-01-29T14:10:17.800Z,2.43
2019-01-29T14:12:46.293Z,4.80
2019-01-29T14:15:25.359Z,7.00
2019-01-29T14:17:53.840Z,2.80
2019-01-29T14:20:22.278Z,2.63
2019-01-29T14:22:50.747Z,3.30
2019-01-29T14:25:19.214Z,3.30
2019-01-29T14:27:47.636Z,3.83
2019-01-29T14:30:21.213Z,4.40
2019-01-29T14:32:49.777Z,3.70
2019-01-29T14:35:18.302Z,6.77
2019-01-29T14:37:52.554Z,2.40
2019-01-29T14:40:21.114Z,4.07
2019-01-29T14:42:49.561Z,3.87
2019-01-29T14:45:19.625Z,2.47
2019-01-29T14:47:48.189Z,3.33
2019-01-29T14:50:16.973Z,7.20
2019-01-29T14:52:47.066Z,2.80
2019-01-29T14:55:16.269Z,3.00
2019-01-29T14:57:44.780Z,3.10
2019-01-29T15:00:22.554Z,2.20
2019-01-29T15:02:51.025Z,2.33
2019-01-29T15:05:19.453Z,3.13
2019-01-29T15:07:47.980Z,2.00
2019-01-29T15:10:27.115Z,3.10
2019-01-29T15:12:55.626Z,2.07
2019-01-29T15:15:29.750Z,2.43
2019-01-29T15:18:14.380Z,3.53
2019-01-29T15:20:42.869Z,4.30
2019-01-29T15:23:11.406Z,3.50
2019-01-29T15:25:39.892Z,3.03
2019-01-29T15:28:08.374Z,2.87
2019-01-29T15:30:36.952Z,2.83
2019-01-29T15:33:05.535Z,4.03
2019-01-29T15:35:34.038Z,4.23
2019-01-29T15:38:02.466Z,3.27
2019-01-29T15:40:30.906Z,4.20
2019-01-29T15:42:59.421Z,5.53
2019-01-29T15:45:28.577Z,6.90
2019-01-29T15:47:57.016Z,6.93
2019-01-29T15:50:32.566Z,8.13
2019-01-29T15:53:01.155Z,10.83
2019-01-29T15:55:29.646Z,8.60
2019-01-29T15:57:58.250Z,6.40
2019-01-29T16:00:34.830Z,13.90
2019-01-29T16:03:03.421Z,16.53
2019-01-29T16:05:37.002Z,18.90
2019-01-29T16:08:10.969Z,24.30
2019-01-29T16:10:41.255Z,20.90
2019-01-29T16:13:09.817Z,26.30
2019-01-29T16:15:38.605Z,27.30
2019-01-29T16:18:07.397Z,19.63
2019-01-29T16:20:35.981Z,20.70
2019-01-29T16:23:05.118Z,20.67
2019-01-29T16:25:35.096Z,9.83
2019-01-29T16:28:03.581Z,18.63
2019-01-29T16:30:33.569Z,26.70
2019-01-29T16:33:02.022Z,13.83
2019-01-29T16:35:38.093Z,10.23
2019-01-29T16:38:08.064Z,8.40
2019-01-29T16:40:41.542Z,11.83
2019-01-29T16:43:09.995Z,8.57
2019-01-29T16:45:38.655Z,16.07
2019-01-29T16:48:09.405Z,15.63
2019-01-29T16:50:37.990Z,13.93
2019-01-29T16:53:07.953Z,17.97
2019-01-29T16:55:36.409Z,15.97
2019-01-29T16:58:06.580Z,19.60
2019-01-29T17:00:39.470Z,16.40
2019-01-29T17:03:08.058Z,10.77
2019-01-29T17:05:36.643Z,13.10
2019-01-29T17:08:05.443Z,10.30
2019-01-29T17:10:34.298Z,9.83
2019-01-29T17:13:02.893Z,6.83
2019-01-29T17:15:36.139Z,7.20
2019-01-29T17:18:06.517Z,9.93
2019-01-29T17:20:40.465Z,8.60
2019-01-29T17:23:09.600Z,6.83
2019-01-29T17:25:38.329Z,7.13
2019-01-29T17:28:06.838Z,5.80
2019-01-29T17:30:42.941Z,5.53
2019-01-29T17:33:12.470Z,6.40
2019-01-29T17:35:41.195Z,6.23
2019-01-29T17:38:09.734Z,7.93
2019-01-29T17:40:38.227Z,7.10
2019-01-29T17:43:07.421Z,7.87
2019-01-29T17:45:47.329Z,11.80
2019-01-29T17:48:15.926Z,11.37
2019-01-29T17:50:45.737Z,11.60
2019-01-29T17:53:14.371Z,9.63
2019-01-29T17:55:44.151Z,6.10
2019-01-29T17:58:13.355Z,7.37
2019-01-29T18:00:46.559Z,11.00
2019-01-29T18:03:15.234Z,6.10
2019-01-29T18:05:43.987Z,6.30
2019-01-29T18:08:12.607Z,6.83
2019-01-29T18:10:41.138Z,7.47
2019-01-29T18:13:09.789Z,11.40
2019-01-29T18:15:38.347Z,7.10
2019-01-29T18:18:07.051Z,7.57
2019-01-29T18:20:35.579Z,6.67
2019-01-29T18:23:06.016Z,6.77
2019-01-29T18:25:34.737Z,7.20
2019-01-29T18:28:03.254Z,10.70
2019-01-29T18:30:35.914Z,8.97
2019-01-29T18:33:04.711Z,7.17
2019-01-29T18:35:33.264Z,7.37
2019-01-29T18:38:01.917Z,9.63
2019-01-29T18:40:33.608Z,14.23
2019-01-29T18:43:02.089Z,17.53
2019-01-29T18:45:30.726Z,12.23
2019-01-29T18:47:59.177Z,11.57
2019-01-29T18:50:27.863Z,9.70
2019-01-29T18:52:56.387Z,9.13
2019-01-29T18:55:24.947Z,9.43
2019-01-29T18:57:53.391Z,10.67
2019-01-29T19:00:24.183Z,10.00
2019-01-29T19:02:52.760Z,11.23
2019-01-29T19:05:23.349Z,15.90
2019-01-29T19:07:51.868Z,11.60
2019-01-29T19:10:21.747Z,10.27
2019-01-29T19:12:50.442Z,11.43
2019-01-29T19:15:21.543Z,10.33
2019-01-29T19:17:50.180Z,11.30
2019-01-29T19:20:23.777Z,9.10
2019-01-29T19:22:52.721Z,12.90
2019-01-29T19:25:22.018Z,13.90
2019-01-29T19:27:50.711Z,10.43
2019-01-29T19:30:24.163Z,10.83
2019-01-29T19:32:52.680Z,10.70
2019-01-29T19:35:22.134Z,11.80
2019-01-29T19:37:50.630Z,30.43
2019-01-29T19:40:19.541Z,14.37
2019-01-29T19:42:48.305Z,11.93
2019-01-29T19:45:19.484Z,9.93
2019-01-29T19:47:48.189Z,10.63
2019-01-29T19:50:19.486Z,9.33
2019-01-29T19:52:48.117Z,10.20
2019-01-29T19:55:16.741Z,12.20
2019-01-29T19:57:45.347Z,13.83
2019-01-29T20:00:22.621Z,10.30
2019-01-29T20:02:51.228Z,9.83
2019-01-29T20:05:19.782Z,8.70
2019-01-29T20:07:48.266Z,9.30
2019-01-29T20:10:18.492Z,9.50
2019-01-29T20:12:47.111Z,10.80
2019-01-29T20:15:17.812Z,8.57
2019-01-29T20:17:47.106Z,8.10
2019-01-29T20:20:18.738Z,9.40
2019-01-29T20:22:47.360Z,8.60
2019-01-29T20:25:15.788Z,11.10
2019-01-29T20:27:44.223Z,10.97
2019-01-29T20:30:15.968Z,10.33
2019-01-29T20:32:53.248Z,11.03
2019-01-29T20:35:14.856Z,9.87
2019-01-29T20:37:43.368Z,15.70
2019-01-29T20:40:14.957Z,41.40
2019-01-29T20:42:43.483Z,42.97
2019-01-29T20:45:13.420Z,15.27
2019-01-29T20:47:41.895Z,13.03
2019-01-29T20:50:16.023Z,12.17
2019-01-29T20:52:44.569Z,12.40
2019-01-29T20:55:13.328Z,10.37
2019-01-29T20:57:41.838Z,11.23
2019-01-29T21:00:19.143Z,9.43
2019-01-29T21:02:47.778Z,8.83
2019-01-29T21:05:16.434Z,9.10
2019-01-29T21:07:44.997Z,9.80
2019-01-29T21:10:18.544Z,11.90
2019-01-29T21:12:47.193Z,10.53
2019-01-29T21:15:17.686Z,10.20
2019-01-29T21:17:46.176Z,9.80
2019-01-29T21:20:18.718Z,8.83
2019-01-29T21:22:47.125Z,9.90
2019-01-29T21:25:15.747Z,9.83
2019-01-29T21:27:44.232Z,9.63
2019-01-29T21:30:16.191Z,10.30
2019-01-29T21:32:44.681Z,12.70
2019-01-29T21:35:13.249Z,9.67
2019-01-29T21:37:41.787Z,10.13
2019-01-29T21:40:12.564Z,10.17
2019-01-29T21:42:41.013Z,8.90
2019-01-29T21:45:12.512Z,10.70
2019-01-29T21:47:41.013Z,8.10
2019-01-29T21:50:27.097Z,8.60
2019-01-29T21:52:55.717Z,9.10
2019-01-29T21:55:24.422Z,9.03
2019-01-29T21:57:52.944Z,9.77
2019-01-29T22:00:30.509Z,8.03
2019-01-29T22:02:59.022Z,9.23
2019-01-29T22:05:27.600Z,8.83
2019-01-29T22:07:57.600Z,9.73
2019-01-29T22:10:26.401Z,11.60
2019-01-29T22:12:54.921Z,8.77
2019-01-29T22:15:24.728Z,8.90
2019-01-29T22:17:53.310Z,9.60
2019-01-29T22:20:24.065Z,14.63
2019-01-29T22:22:52.770Z,11.10
2019-01-29T22:25:25.197Z,10.47
2019-01-29T22:27:53.817Z,8.80
2019-01-29T22:30:27.677Z,9.40
2019-01-29T22:32:56.263Z,12.13
2019-01-29T22:35:24.821Z,9.97
2019-01-29T22:37:53.416Z,9.47
2019-01-29T22:40:24.129Z,9.50
2019-01-29T22:42:52.834Z,8.10
2019-01-29T22:45:21.675Z,8.90
2019-01-29T22:47:50.124Z,8.30
2019-01-29T22:50:20.797Z,8.57
2019-01-29T22:52:49.290Z,10.70
2019-01-29T22:55:17.821Z,10.43
2019-01-29T22:57:46.377Z,9.60
2019-01-29T23:00:55.561Z,16.40
2019-01-29T23:03:26.449Z,10.13
2019-01-29T23:06:17.516Z,10.07
2019-01-29T23:08:46.006Z,7.57
2019-01-29T23:11:14.445Z,9.40
2019-01-29T23:13:42.906Z,7.43
2019-01-29T23:16:11.459Z,9.60
2019-01-29T23:18:40.136Z,9.60
2019-01-29T23:21:08.632Z,7.60
2019-01-29T23:23:37.038Z,7.17
2019-01-29T23:26:05.537Z,8.47
2019-01-29T23:28:33.977Z,10.33
2019-01-29T23:31:02.432Z,8.23
2019-01-29T23:33:30.925Z,7.33
2019-01-29T23:35:59.389Z,7.33
2019-01-29T23:38:27.866Z,6.50
2019-01-29T23:40:56.309Z,9.50
2019-01-29T23:43:25.123Z,8.37
2019-01-29T23:45:53.548Z,7.67
2019-01-29T23:48:21.974Z,6.97
2019-01-29T23:50:50.556Z,8.17
2019-01-29T23:53:19.215Z,7.10
2019-01-29T23:55:47.656Z,7.03
2019-01-29T23:58:16.081Z,6.80
